createdAt,value
2022-12-15T10:23:50.421Z,100683.73
2022-12-15T10:25:12.217Z,100682.75
2022-12-15T10:26:19.423Z,100679.96
2022-12-15T10:28:09.159Z,100679.44
2022-12-15T10:29:40.424Z,100679.36
2022-12-15T10:30:55.579Z,100676.30
2022-12-15T10:32:05.396Z,100677.70
2022-12-15T10:33:15.033Z,100678.34
2022-12-15T10:34:44.554Z,100677.67
2022-12-15T10:35:49.022Z,100675.33
2022-12-15T10:36:53.453Z,100675.21
2022-12-15T10:38:05.395Z,100675.09
2022-12-15T10:39:11.604Z,100678.47
2022-12-15T10:40:20.065Z,100678.14
2022-12-15T10:41:26.052Z,100677.79
2022-12-15T10:42:29.775Z,100678.95
2022-12-15T10:43:39.404Z,100676.83
2022-12-15T10:44:50.598Z,100682.38
2022-12-15T10:46:07.177Z,100678.52
2022-12-15T10:47:23.106Z,100674.25
2022-12-15T10:48:26.078Z,100676.27
2022-12-15T10:49:29.067Z,100676.77
2022-12-15T10:50:34.073Z,100676.99
2022-12-15T10:51:44.545Z,100674.94
2022-12-15T10:52:49.474Z,100676.30
2022-12-15T10:54:03.384Z,100672.77
2022-12-15T10:55:31.583Z,100674.67
2022-12-15T10:56:45.854Z,100671.00
2022-12-15T10:58:02.696Z,100675.73
2022-12-15T10:59:24.570Z,100674.81
2022-12-15T11:00:30.656Z,100674.85
2022-12-15T11:01:35.679Z,100674.53
2022-12-15T11:02:39.288Z,100671.85
2022-12-15T11:03:43.280Z,100674.17
2022-12-15T11:05:15.816Z,100672.66
2022-12-15T11:06:22.624Z,100673.41
2022-12-15T11:07:37.997Z,100678.05
2022-12-15T11:08:42.324Z,100681.81
2022-12-15T11:09:48.540Z,100685.27
2022-12-15T11:11:15.847Z,100684.93
2022-12-15T11:12:40.072Z,100682.52
2022-12-15T11:14:04.712Z,100684.38
2022-12-15T11:15:23.064Z,100683.27
2022-12-15T11:16:26.081Z,100685.38
2022-12-15T11:17:40.641Z,100687.14
2022-12-15T11:18:58.847Z,100688.98
2022-12-15T11:20:17.208Z,100688.76
2022-12-15T11:21:35.238Z,100690.46
2022-12-15T11:22:53.361Z,100689.35
2022-12-15T11:24:11.534Z,100690.22
2022-12-15T11:25:29.504Z,100691.53
2022-12-15T11:27:00.658Z,100690.33
2022-12-15T11:28:09.644Z,100694.97
2022-12-15T11:29:57.833Z,100695.65
2022-12-15T11:31:20.502Z,100693.57
2022-12-15T11:32:28.019Z,100693.88
2022-12-15T11:33:31.499Z,100694.73
2022-12-15T11:34:47.814Z,100697.00
2022-12-15T11:36:09.736Z,100699.75
2022-12-15T11:37:18.083Z,100702.12
2022-12-15T11:38:48.883Z,100704.98
2022-12-15T11:40:18.688Z,100705.58
2022-12-15T11:41:39.832Z,100709.44
2022-12-15T11:42:51.969Z,100705.23
2022-12-15T11:44:21.225Z,100705.14
2022-12-15T11:46:01.311Z,100707.27
2022-12-15T11:47:19.730Z,100705.46
2022-12-15T11:48:33.903Z,100703.14
2022-12-15T11:49:47.948Z,100705.80
2022-12-15T11:51:13.306Z,100709.73
2022-12-15T11:52:34.672Z,100710.31
2022-12-15T11:53:56.699Z,100711.91
2022-12-15T11:55:13.020Z,100711.08
2022-12-15T11:56:26.181Z,100716.42
2022-12-15T11:58:04.616Z,100721.60
2022-12-15T11:59:16.565Z,100716.66
2022-12-15T12:00:23.543Z,100715.80
2022-12-15T12:01:57.021Z,100718.08
2022-12-15T12:03:41.178Z,100712.74
2022-12-15T12:04:47.272Z,100715.34
2022-12-15T12:06:08.574Z,100713.52
2022-12-15T12:07:18.339Z,100717.63
2022-12-15T12:08:40.378Z,100718.94
2022-12-15T12:09:59.429Z,100723.15
2022-12-15T12:11:17.005Z,100726.13
2022-12-15T12:12:30.410Z,100728.27
2022-12-15T12:14:08.086Z,100728.33
2022-12-15T12:15:30.025Z,100730.13
2022-12-15T12:16:39.737Z,100730.02
2022-12-15T12:17:50.270Z,100730.00
2022-12-15T12:19:04.483Z,100731.63
2022-12-15T12:20:36.165Z,100732.52
2022-12-15T12:21:44.309Z,100736.34
2022-12-15T12:23:04.755Z,100734.52
2022-12-15T12:24:21.264Z,100731.65
2022-12-15T12:25:25.815Z,100735.98
2022-12-15T12:26:28.766Z,100732.93
2022-12-15T12:27:48.729Z,100734.27
2022-12-15T12:29:00.982Z,100733.63
2022-12-15T12:30:25.286Z,100735.02
2022-12-15T12:32:00.540Z,100733.37
2022-12-15T12:33:14.154Z,100740.80
2022-12-15T12:34:29.388Z,100734.98
2022-12-15T12:35:44.710Z,100737.29
2022-12-15T12:36:49.161Z,100738.07
2022-12-15T12:38:03.210Z,100736.77
2022-12-15T12:39:16.225Z,100732.20
2022-12-15T12:40:38.405Z,100737.58
2022-12-15T12:41:50.752Z,100739.45
2022-12-15T12:42:56.666Z,100737.78
2022-12-15T12:44:11.314Z,100742.04
2022-12-15T12:45:15.034Z,100740.87
2022-12-15T12:46:27.700Z,100739.42
2022-12-15T12:47:35.498Z,100735.31
2022-12-15T12:49:07.231Z,100733.97
2022-12-15T12:50:26.109Z,100737.54
2022-12-15T12:51:38.124Z,100738.39
2022-12-15T12:52:55.610Z,100745.20
2022-12-15T12:54:00.130Z,100743.64
2022-12-15T12:55:23.914Z,100745.67
2022-12-15T12:56:43.328Z,100746.61
2022-12-15T12:57:47.523Z,100753.23
2022-12-15T12:58:53.197Z,100751.38
2022-12-15T13:00:13.043Z,100751.02
2022-12-15T13:01:33.466Z,100746.59
2022-12-15T13:02:39.349Z,100745.11
2022-12-15T13:03:43.634Z,100743.99
2022-12-15T13:04:50.875Z,100744.30
2022-12-15T13:05:54.820Z,100743.69
2022-12-15T13:07:02.346Z,100741.22
2022-12-15T13:08:05.279Z,100741.05
2022-12-15T13:09:17.632Z,100740.27
2022-12-15T13:10:22.497Z,100740.09
2022-12-15T13:11:53.828Z,100738.54
2022-12-15T13:13:19.173Z,100737.52
2022-12-15T13:14:31.764Z,100735.34
2022-12-15T13:15:42.991Z,100739.63
2022-12-15T13:17:08.434Z,100740.85
2022-12-15T13:18:20.615Z,100746.85
2022-12-15T13:19:58.612Z,100747.85
2022-12-15T13:21:34.802Z,100753.02
2022-12-15T13:22:39.982Z,100753.17
2022-12-15T13:23:43.129Z,100753.77
2022-12-15T13:24:50.387Z,100749.70
2022-12-15T13:25:56.611Z,100748.48
2022-12-15T13:27:19.906Z,100751.61
2022-12-15T13:28:35.540Z,100752.30
2022-12-15T13:29:55.018Z,100750.97
2022-12-15T13:31:20.830Z,100749.69
2022-12-15T13:32:31.563Z,100752.71
2022-12-15T13:33:50.163Z,100756.34
2022-12-15T13:34:53.397Z,100764.30
2022-12-15T13:35:57.900Z,100763.65
2022-12-15T13:37:02.874Z,100762.95
2022-12-15T13:38:17.449Z,100765.46
2022-12-15T13:39:20.397Z,100767.15
2022-12-15T13:40:23.770Z,100765.04
2022-12-15T13:41:26.859Z,100763.84
2022-12-15T13:43:57.807Z,100771.19
2022-12-15T13:45:24.595Z,100770.05
2022-12-15T13:46:33.427Z,100771.46
2022-12-15T13:47:37.979Z,100769.27
2022-12-15T13:48:45.720Z,100772.08
2022-12-15T13:50:02.093Z,100773.05
2022-12-15T13:51:18.017Z,100771.70
2022-12-15T13:54:25.221Z,100774.00
2022-12-15T13:55:35.784Z,100777.17
2022-12-15T13:56:41.913Z,100777.60
2022-12-15T13:58:02.974Z,100781.20
2022-12-15T13:59:16.410Z,100785.84
2022-12-15T14:00:20.321Z,100790.16
2022-12-15T14:01:33.231Z,100789.39
2022-12-15T14:02:37.440Z,100793.64
2022-12-15T14:03:55.969Z,100797.10
2022-12-15T14:05:17.528Z,100798.23
2022-12-15T14:06:20.889Z,100800.94
2022-12-15T14:07:23.925Z,100800.23
2022-12-15T14:08:30.228Z,100801.95
2022-12-15T14:09:41.218Z,100803.86
2022-12-15T14:10:51.299Z,100803.50
2022-12-15T14:11:54.647Z,100809.77
2022-12-15T14:13:01.551Z,100812.89
2022-12-15T14:14:05.039Z,100812.92
2022-12-15T14:15:20.142Z,100815.08
2022-12-15T14:16:24.590Z,100818.13
2022-12-15T14:17:28.251Z,100808.98
2022-12-15T14:18:36.226Z,100815.89
2022-12-15T14:19:44.976Z,100816.73
2022-12-15T14:20:48.531Z,100817.88
2022-12-15T14:21:54.952Z,100817.27
2022-12-15T14:22:59.007Z,100818.42
2022-12-15T14:24:37.004Z,100816.15
2022-12-15T14:25:31.757Z,100818.70
2022-12-15T14:26:34.931Z,100816.19
2022-12-15T14:27:37.968Z,100816.33
2022-12-15T14:28:46.642Z,100818.84
2022-12-15T14:30:13.745Z,100814.69
2022-12-15T14:31:21.348Z,100813.73
2022-12-15T14:32:25.134Z,100818.48
2022-12-15T14:33:29.902Z,100819.02
2022-12-15T14:34:38.884Z,100820.80
2022-12-15T14:35:44.131Z,100820.09
2022-12-15T14:36:56.111Z,100818.27
2022-12-15T14:38:02.742Z,100815.85
2022-12-15T14:39:21.238Z,100820.86
2022-12-15T14:40:28.960Z,100823.62
2022-12-15T14:41:37.283Z,100826.23
2022-12-15T14:42:41.420Z,100831.58
2022-12-15T14:43:44.627Z,100832.34
2022-12-15T14:45:21.134Z,100834.56
2022-12-15T14:46:27.208Z,100831.56
2022-12-15T14:47:33.928Z,100833.31
2022-12-15T14:48:41.703Z,100829.14
2022-12-15T14:49:46.438Z,100826.34
2022-12-15T14:50:51.243Z,100829.23
2022-12-15T14:52:00.704Z,100833.67
2022-12-15T14:53:13.950Z,100832.60
2022-12-15T14:54:59.819Z,100837.89
2022-12-15T14:56:27.597Z,100834.06
2022-12-15T14:57:45.471Z,100836.52
2022-12-15T14:59:18.917Z,100832.88
2022-12-15T15:00:50.277Z,100830.29
2022-12-15T15:01:59.715Z,100830.84
2022-12-15T15:03:05.499Z,100772.27
2022-12-15T15:03:18.761Z,100831.23
2022-12-15T15:04:31.359Z,100835.98
2022-12-15T15:05:34.937Z,100837.69
2022-12-15T15:06:40.185Z,100841.69
2022-12-15T15:07:45.599Z,100842.16
2022-12-15T15:08:53.148Z,100850.91
2022-12-15T15:09:56.579Z,100845.76
2022-12-15T15:11:29.706Z,100847.25
2022-12-15T15:12:46.210Z,100844.61
2022-12-15T15:13:56.163Z,100844.88
2022-12-15T15:15:04.832Z,100845.01
2022-12-15T15:16:16.373Z,100848.10
2022-12-15T15:17:25.725Z,100844.82
2022-12-15T15:18:29.837Z,100848.52
2022-12-15T15:19:39.690Z,100846.00
2022-12-15T15:20:54.903Z,100845.25
2022-12-15T15:22:01.103Z,100841.27
2022-12-15T15:23:04.093Z,100847.11
2022-12-15T15:24:10.788Z,100848.53
2022-12-15T15:25:29.341Z,100844.93
2022-12-15T15:26:33.383Z,100845.67
2022-12-15T15:27:39.930Z,100840.20
2022-12-15T15:28:45.027Z,100842.73
2022-12-15T15:29:49.053Z,100844.84
2022-12-15T15:30:56.081Z,100848.23
2022-12-15T15:32:18.176Z,100851.50
2022-12-15T15:33:22.430Z,100853.67
2022-12-15T15:34:26.091Z,100854.86
2022-12-15T15:35:31.632Z,100853.95
2022-12-15T15:36:37.718Z,100853.75
2022-12-15T15:37:40.761Z,100860.80
2022-12-15T15:38:46.636Z,100863.80
2022-12-15T15:39:54.510Z,100860.98
2022-12-15T15:41:22.957Z,100867.15
2022-12-15T15:42:32.224Z,100866.64
2022-12-15T15:43:36.326Z,100873.09
2022-12-15T15:44:40.438Z,100875.63
2022-12-15T15:45:43.821Z,100876.89
2022-12-15T15:46:50.183Z,100878.56
2022-12-15T15:47:56.060Z,100880.19
2022-12-15T15:49:07.345Z,100880.34
2022-12-15T15:50:14.447Z,100880.58
2022-12-15T15:51:18.616Z,100878.60
2022-12-15T15:52:22.962Z,100880.20
2022-12-15T15:53:27.944Z,100880.19
2022-12-15T15:54:37.915Z,100883.29
2022-12-15T15:55:42.562Z,100887.63
2022-12-15T15:56:45.637Z,100886.29
2022-12-15T15:57:48.809Z,100881.50
2022-12-15T15:58:51.942Z,100878.86
2022-12-15T15:59:55.360Z,100885.08
2022-12-15T16:00:58.598Z,100887.03
2022-12-15T16:02:02.344Z,100884.92
2022-12-15T16:03:06.638Z,100888.79
2022-12-15T16:04:12.340Z,100886.85
2022-12-15T16:05:15.578Z,100890.39
2022-12-15T16:06:21.072Z,100893.20
2022-12-15T16:07:28.001Z,100893.58
2022-12-15T16:08:36.510Z,100892.11
2022-12-15T16:09:39.914Z,100892.13
2022-12-15T16:10:48.681Z,100892.73
2022-12-15T16:11:51.711Z,100889.33
2022-12-15T16:12:57.542Z,100885.73
2022-12-15T16:14:01.802Z,100886.42
2022-12-15T16:15:20.394Z,100891.35
2022-12-15T16:16:28.353Z,100888.59
2022-12-15T16:17:31.353Z,100886.70
2022-12-15T16:18:35.344Z,100886.02
2022-12-15T16:19:39.917Z,100886.92
2022-12-15T16:20:46.482Z,100885.25
2022-12-15T16:21:51.009Z,100887.25
2022-12-15T16:22:58.405Z,100888.74
2022-12-15T16:24:10.005Z,100887.96
2022-12-15T16:25:17.429Z,100889.34
2022-12-15T16:26:32.393Z,100889.95
2022-12-15T16:27:35.479Z,100888.18
2022-12-15T16:28:38.568Z,100890.39
2022-12-15T16:29:42.139Z,100888.05
2022-12-15T16:30:45.733Z,100887.64
2022-12-15T16:31:49.090Z,100895.61
2022-12-15T16:32:53.448Z,100894.38
2022-12-15T16:33:59.032Z,100898.51
2022-12-15T16:35:02.147Z,100899.56
2022-12-15T16:36:14.010Z,100906.55
2022-12-15T16:37:39.681Z,100911.57
2022-12-15T16:38:43.350Z,100919.04
2022-12-15T16:39:46.341Z,100920.65
2022-12-15T16:40:49.387Z,100925.55
2022-12-15T16:41:55.670Z,100927.27
2022-12-15T16:43:01.117Z,100931.58
2022-12-15T16:44:04.313Z,100932.52
2022-12-15T16:45:18.627Z,100933.98
2022-12-15T16:46:21.874Z,100933.84
2022-12-15T16:47:24.986Z,100927.35
2022-12-15T16:48:28.366Z,100924.20
2022-12-15T16:49:38.099Z,100930.94
2022-12-15T16:50:55.361Z,100927.27
2022-12-15T16:51:58.927Z,100925.06
2022-12-15T16:53:04.154Z,100926.68
2022-12-15T16:54:12.898Z,100935.52
2022-12-15T16:55:28.277Z,100933.81
2022-12-15T16:56:31.387Z,100940.16
2022-12-15T16:57:35.177Z,100941.25
2022-12-15T16:58:38.223Z,100937.86
2022-12-15T16:59:41.430Z,100936.42
2022-12-15T17:00:45.377Z,100932.16
2022-12-15T17:01:48.535Z,100933.97
2022-12-15T17:02:53.401Z,100931.30
2022-12-15T17:03:57.154Z,100934.89
2022-12-15T17:05:00.314Z,100934.30
2022-12-15T17:06:06.700Z,100933.02
2022-12-15T17:07:19.558Z,100927.55
2022-12-15T17:08:43.841Z,100929.59
2022-12-15T17:09:47.068Z,100928.92
2022-12-15T17:10:51.064Z,100931.70
2022-12-15T17:11:54.142Z,100932.64
2022-12-15T17:13:06.730Z,100933.70
2022-12-15T17:14:10.316Z,100933.58
2022-12-15T17:15:23.353Z,100934.09
2022-12-15T17:16:28.188Z,100929.70
2022-12-15T17:17:31.595Z,100931.60
2022-12-15T17:18:34.714Z,100932.14
2022-12-15T17:19:37.874Z,100936.46
2022-12-15T17:20:42.399Z,100938.67
2022-12-15T17:21:51.834Z,100942.66
2022-12-15T17:23:07.773Z,100944.63
2022-12-15T17:24:15.942Z,100942.24
2022-12-15T17:25:53.360Z,100945.79
2022-12-15T17:26:47.976Z,100944.89
2022-12-15T17:27:52.856Z,100941.63
2022-12-15T17:28:59.823Z,100947.52
2022-12-15T17:30:03.029Z,100942.13
2022-12-15T17:31:09.849Z,100945.36
2022-12-15T17:32:13.330Z,100943.55
2022-12-15T17:33:25.130Z,100943.10
2022-12-15T17:34:30.427Z,100939.39
2022-12-15T17:35:33.753Z,100939.86
2022-12-15T17:36:37.858Z,100939.20
2022-12-15T17:37:41.862Z,100939.08
2022-12-15T17:38:45.052Z,100942.61
2022-12-15T17:39:51.588Z,100946.25
2022-12-15T17:40:56.542Z,100947.52
2022-12-15T17:42:01.433Z,100950.82
2022-12-15T17:43:16.200Z,100950.46
2022-12-15T17:44:34.371Z,100948.87
2022-12-15T17:45:38.364Z,100952.68
2022-12-15T17:46:41.418Z,100952.36
2022-12-15T17:47:45.356Z,100956.15
2022-12-15T17:48:48.422Z,100956.49
2022-12-15T17:49:51.425Z,100955.55
2022-12-15T17:50:54.552Z,100957.06
2022-12-15T17:51:59.890Z,100954.83
2022-12-15T17:53:05.621Z,100951.19
2022-12-15T17:54:13.040Z,100953.15
2022-12-15T17:55:33.327Z,100950.58
2022-12-15T17:56:38.260Z,100947.27
2022-12-15T17:57:41.399Z,100944.25
2022-12-15T17:58:44.561Z,100947.61
2022-12-15T17:59:47.720Z,100946.11
2022-12-15T18:00:56.587Z,100947.21
2022-12-15T18:01:59.778Z,100945.50
2022-12-15T18:03:04.748Z,100942.36
2022-12-15T18:04:09.644Z,100945.23
2022-12-15T18:05:13.373Z,100950.17
2022-12-15T18:06:17.612Z,100947.98
2022-12-15T18:07:22.783Z,100955.84
2022-12-15T18:08:27.818Z,100958.69
2022-12-15T18:09:31.007Z,100957.88
2022-12-15T18:10:38.156Z,100961.38
2022-12-15T18:11:43.248Z,100964.04
2022-12-15T18:12:46.357Z,100966.70
2022-12-15T18:13:49.376Z,100968.67
2022-12-15T18:14:53.589Z,100970.76
2022-12-15T18:15:57.206Z,100977.17
2022-12-15T18:17:00.227Z,100978.44
2022-12-15T18:18:03.347Z,100983.37
2022-12-15T18:19:06.510Z,100990.33
2022-12-15T18:20:10.177Z,100993.85
2022-12-15T18:21:15.527Z,100997.61
2022-12-15T18:22:24.807Z,101004.02
2022-12-15T18:23:32.393Z,101000.30
2022-12-15T18:24:36.176Z,101000.63
2022-12-15T18:25:40.160Z,101001.44
2022-12-15T18:26:43.381Z,100999.17
2022-12-15T18:27:47.211Z,101003.63
2022-12-15T18:28:50.301Z,101003.57
2022-12-15T18:29:53.426Z,101008.89
2022-12-15T18:31:13.827Z,101009.75
2022-12-15T18:32:18.671Z,101010.44
2022-12-15T18:33:23.488Z,101009.20
2022-12-15T18:34:26.514Z,101009.24
2022-12-15T18:35:39.938Z,101004.95
2022-12-15T18:36:43.410Z,101007.36
2022-12-15T18:37:47.648Z,101008.48
2022-12-15T18:38:50.922Z,101009.98
2022-12-15T18:39:59.501Z,101008.80
2022-12-15T18:41:13.254Z,101011.69
2022-12-15T18:42:20.443Z,101011.98
2022-12-15T18:43:25.984Z,101013.92
2022-12-15T18:44:32.126Z,101012.83
2022-12-15T18:45:35.167Z,101012.38
2022-12-15T18:46:40.933Z,101016.38
2022-12-15T18:47:46.987Z,101020.65
2022-12-15T18:48:50.216Z,101020.02
2022-12-15T18:49:53.170Z,101020.82
2022-12-15T18:50:58.119Z,101020.67
2022-12-15T18:52:01.146Z,101021.69
2022-12-15T18:53:04.185Z,101026.55
2022-12-15T18:54:15.301Z,101022.44
2022-12-15T18:55:21.984Z,101019.07
2022-12-15T18:56:25.250Z,101026.34
2022-12-15T18:57:36.324Z,101028.06
2022-12-15T18:58:40.163Z,101032.30
2022-12-15T18:59:43.590Z,101035.87
2022-12-15T19:00:47.527Z,101036.67
2022-12-15T19:01:50.774Z,101040.79
2022-12-15T19:02:57.303Z,101034.64
2022-12-15T19:04:00.472Z,101041.21
2022-12-15T19:05:03.820Z,101043.59
2022-12-15T19:06:34.980Z,101047.52
2022-12-15T19:07:38.159Z,101047.88
2022-12-15T19:08:41.496Z,101056.33
2022-12-15T19:09:44.644Z,101054.36
2022-12-15T19:11:00.093Z,101054.65
2022-12-15T19:12:18.365Z,101059.69
2022-12-15T19:13:32.754Z,101058.27
2022-12-15T19:14:42.935Z,101063.90
2022-12-15T19:15:46.952Z,101057.72
2022-12-15T19:17:09.146Z,101063.77
2022-12-15T19:18:39.067Z,101070.10
2022-12-15T19:20:00.774Z,101071.20
2022-12-15T19:21:44.181Z,101070.02
2022-12-15T19:22:48.838Z,101073.93
2022-12-15T19:23:51.961Z,101071.45
2022-12-15T19:24:55.113Z,101078.59
2022-12-15T19:25:58.611Z,101075.71
2022-12-15T19:27:01.769Z,101078.96
2022-12-15T19:28:12.562Z,101079.88
2022-12-15T19:29:19.122Z,101083.30
2022-12-15T19:30:22.230Z,101083.25
2022-12-15T19:31:25.330Z,101084.56
2022-12-15T19:32:28.691Z,101086.70
2022-12-15T19:33:32.342Z,101083.26
2022-12-15T19:34:35.794Z,101081.61
2022-12-15T19:35:41.860Z,101079.29
2022-12-15T19:36:44.914Z,101081.46
2022-12-15T19:37:50.148Z,101085.27
2022-12-15T19:38:55.838Z,101088.39
2022-12-15T19:40:01.522Z,101093.09
2022-12-15T19:41:04.639Z,101086.63
2022-12-15T19:42:19.669Z,101089.41
2022-12-15T19:43:24.305Z,101094.48
2022-12-15T19:44:27.530Z,101090.95
2022-12-15T19:45:32.314Z,101092.63
2022-12-15T19:46:35.948Z,101094.51
2022-12-15T19:47:39.428Z,101092.25
2022-12-15T19:48:43.484Z,101093.04
2022-12-15T19:49:46.868Z,101094.17
2022-12-15T19:50:51.905Z,101098.52
2022-12-15T19:51:55.141Z,101096.79
2022-12-15T19:53:01.534Z,101098.36
2022-12-15T19:54:04.921Z,101101.29
2022-12-15T19:55:16.482Z,101104.05
2022-12-15T19:56:21.904Z,101101.95
2022-12-15T19:57:25.029Z,101104.39
2022-12-15T19:58:31.457Z,101102.50
2022-12-15T19:59:34.472Z,101106.31
2022-12-15T20:00:37.826Z,101103.66
2022-12-15T20:01:41.018Z,101101.08
2022-12-15T20:02:45.340Z,101105.83
2022-12-15T20:03:51.138Z,101107.45
2022-12-15T20:04:54.197Z,101106.09
2022-12-15T20:05:58.946Z,101106.47
2022-12-15T20:07:04.108Z,101106.83
2022-12-15T20:08:07.211Z,101110.54
2022-12-15T20:09:18.469Z,101106.39
2022-12-15T20:10:32.159Z,101108.71
2022-12-15T20:11:35.820Z,101110.20
2022-12-15T20:12:38.904Z,101108.17
2022-12-15T20:13:41.954Z,101118.21
2022-12-15T20:14:47.148Z,101115.41
2022-12-15T20:15:51.675Z,101115.60
2022-12-15T20:16:55.172Z,101109.36
2022-12-15T20:17:58.253Z,101109.13
2022-12-15T20:19:01.505Z,101105.34
2022-12-15T20:20:05.347Z,101108.84
2022-12-15T20:21:09.954Z,101110.20
2022-12-15T20:22:16.117Z,101113.98
2022-12-15T20:23:27.699Z,101110.89
2022-12-15T20:24:32.497Z,101109.48
2022-12-15T20:25:37.548Z,101112.21
2022-12-15T20:26:42.611Z,101115.14
2022-12-15T20:27:47.670Z,101116.80
2022-12-15T20:28:52.197Z,101116.85
2022-12-15T20:29:55.165Z,101117.30
2022-12-15T20:30:59.051Z,101113.58
2022-12-15T20:32:02.202Z,101112.11
2022-12-15T20:33:06.284Z,101108.92
2022-12-15T20:34:09.234Z,101112.50
2022-12-15T20:35:19.619Z,101113.70
2022-12-15T20:36:26.369Z,101112.56
2022-12-15T20:37:31.100Z,101114.81
2022-12-15T20:38:34.343Z,101115.33
2022-12-15T20:39:38.032Z,101114.23
2022-12-15T20:40:40.949Z,101117.70
2022-12-15T20:41:43.930Z,101116.96
2022-12-15T20:42:50.162Z,101119.24
2022-12-15T20:43:56.112Z,101120.61
2022-12-15T20:44:59.149Z,101119.73
2022-12-15T20:46:25.174Z,101117.91
2022-12-15T20:47:28.530Z,101117.58
2022-12-15T20:48:34.779Z,101119.60
2022-12-15T20:49:38.167Z,101120.77
2022-12-15T20:50:46.861Z,101119.63
2022-12-15T20:51:50.932Z,101114.73
2022-12-15T20:52:54.924Z,101111.95
2022-12-15T20:54:00.727Z,101111.91
2022-12-15T20:55:06.932Z,101111.43
2022-12-15T20:56:10.026Z,101103.77
2022-12-15T20:57:13.131Z,101105.38
2022-12-15T20:58:17.116Z,101102.73
2022-12-15T20:59:20.109Z,101107.77
2022-12-15T21:00:23.282Z,101110.23
2022-12-15T21:01:31.766Z,101109.02
2022-12-15T21:02:35.021Z,101114.40
2022-12-15T21:03:38.696Z,101112.33
2022-12-15T21:04:42.294Z,101109.39
2022-12-15T21:05:46.037Z,101114.66
2022-12-15T21:06:54.454Z,101110.44
2022-12-15T21:07:57.985Z,101117.34
2022-12-15T21:09:01.123Z,101119.73
2022-12-15T21:10:04.814Z,101121.45
2022-12-15T21:11:18.481Z,101118.73
2022-12-15T21:12:25.284Z,101116.02
2022-12-15T21:13:33.161Z,101121.42
2022-12-15T21:14:36.652Z,101119.16
2022-12-15T21:15:39.793Z,101116.19
2022-12-15T21:16:44.895Z,101111.61
2022-12-15T21:17:58.020Z,101112.88
2022-12-15T21:19:22.996Z,101112.19
2022-12-15T21:20:26.359Z,101110.93
2022-12-15T21:21:38.316Z,101112.80
2022-12-15T21:22:41.918Z,101115.41
2022-12-15T21:23:45.747Z,101118.33
2022-12-15T21:24:54.214Z,101116.81
2022-12-15T21:26:01.427Z,101121.32
2022-12-15T21:27:04.504Z,101121.93
2022-12-15T21:28:11.867Z,101122.20
2022-12-15T21:29:18.089Z,101123.08
2022-12-15T21:30:23.115Z,101124.15
2022-12-15T21:31:26.737Z,101125.85
2022-12-15T21:32:30.137Z,101129.80
2022-12-15T21:33:33.373Z,101129.94
2022-12-15T21:34:37.175Z,101130.56
2022-12-15T21:35:41.531Z,101131.67
2022-12-15T21:36:50.043Z,101134.68
2022-12-15T21:37:54.934Z,101134.27
2022-12-15T21:38:59.360Z,101134.83
2022-12-15T21:40:02.570Z,101137.02
2022-12-15T21:41:11.579Z,101136.16
2022-12-15T21:42:16.762Z,101143.16
2022-12-15T21:43:24.282Z,101143.07
2022-12-15T21:44:27.511Z,101146.30
2022-12-15T21:45:30.546Z,101144.65
2022-12-15T21:46:33.561Z,101146.98
2022-12-15T21:47:55.222Z,101150.68
2022-12-15T21:49:20.596Z,101151.23
2022-12-15T21:50:24.099Z,101151.94
2022-12-15T21:51:30.101Z,101156.80
2022-12-15T21:52:33.128Z,101168.75
2022-12-15T21:53:36.232Z,101169.64
2022-12-15T21:54:39.192Z,101177.40
2022-12-15T21:55:44.572Z,101181.61
2022-12-15T21:56:48.632Z,101188.25
2022-12-15T21:57:52.429Z,101191.01
2022-12-15T21:58:56.646Z,101188.36
2022-12-15T21:59:59.607Z,101190.24
2022-12-15T22:01:02.808Z,101194.20
2022-12-15T22:02:24.258Z,101198.88
2022-12-15T22:03:27.473Z,101199.36
2022-12-15T22:04:34.211Z,101205.99
2022-12-15T22:05:37.195Z,101201.30
2022-12-15T22:06:40.556Z,101203.60
2022-12-15T22:07:43.809Z,101203.71
2022-12-15T22:08:46.870Z,101201.64
2022-12-15T22:09:49.974Z,101196.88
2022-12-15T22:10:54.895Z,101193.52
2022-12-15T22:11:58.307Z,101196.19
2022-12-15T22:13:03.097Z,101194.52
2022-12-15T22:14:34.217Z,101194.05
2022-12-15T22:15:37.341Z,101199.17
2022-12-15T22:16:40.392Z,101201.14
2022-12-15T22:17:44.388Z,101208.50
2022-12-15T22:18:54.826Z,101212.13
2022-12-15T22:19:58.298Z,101210.92
2022-12-15T22:21:01.273Z,101207.39
2022-12-15T22:22:04.229Z,101204.58
2022-12-15T22:23:07.464Z,101206.49
2022-12-15T22:24:11.403Z,101202.79
2022-12-15T22:25:24.582Z,101202.48
2022-12-15T22:26:30.012Z,101200.27
2022-12-15T22:27:34.523Z,101205.59
2022-12-15T22:28:37.832Z,101203.15
2022-12-15T22:29:41.000Z,101201.33
2022-12-15T22:30:44.088Z,101205.20
2022-12-15T22:31:50.744Z,101208.31
2022-12-15T22:32:55.184Z,101212.24
2022-12-15T22:33:58.723Z,101213.45
2022-12-15T22:35:01.886Z,101216.69
2022-12-15T22:36:05.024Z,101213.08
2022-12-15T22:37:08.258Z,101204.34
2022-12-15T22:38:11.323Z,101202.23
2022-12-15T22:39:15.161Z,101198.59
2022-12-15T22:40:18.314Z,101200.92
2022-12-15T22:41:23.812Z,101207.84
2022-12-15T22:42:26.779Z,101209.18
2022-12-15T22:43:37.830Z,101209.33
2022-12-15T22:44:41.006Z,101210.57
2022-12-15T22:45:44.069Z,101209.88
2022-12-15T22:46:48.582Z,101216.49
2022-12-15T22:47:53.542Z,101216.79
2022-12-15T22:48:58.502Z,101213.00
2022-12-15T22:50:02.138Z,101211.25
2022-12-15T22:51:06.303Z,101210.59
2022-12-15T22:52:18.839Z,101210.14
2022-12-15T22:53:23.003Z,101204.70
2022-12-15T22:54:29.355Z,101201.91
2022-12-15T22:55:32.502Z,101197.58
2022-12-15T22:56:39.894Z,101191.11
2022-12-15T22:57:52.249Z,101192.83
2022-12-15T22:59:01.109Z,101190.73
2022-12-15T23:00:08.057Z,101196.11
2022-12-15T23:01:12.137Z,101197.74
2022-12-15T23:02:15.143Z,101199.70
2022-12-15T23:03:19.285Z,101198.27
2022-12-15T23:04:24.094Z,101203.98
2022-12-15T23:05:27.261Z,101204.99
2022-12-15T23:06:30.505Z,101208.91
2022-12-15T23:07:39.781Z,101207.84
2022-12-15T23:08:42.739Z,101210.02
2022-12-15T23:09:45.654Z,101208.91
2022-12-15T23:11:07.701Z,101206.71
2022-12-15T23:12:12.092Z,101206.67
2022-12-15T23:13:15.084Z,101206.59
2022-12-15T23:14:39.352Z,101215.11
2022-12-15T23:16:01.155Z,101215.52
2022-12-15T23:17:04.177Z,101212.27
2022-12-15T23:18:07.558Z,101212.28
2022-12-15T23:19:24.114Z,101212.98
2022-12-15T23:20:27.254Z,101214.03
2022-12-15T23:21:30.728Z,101218.55
2022-12-15T23:22:33.692Z,101220.20
2022-12-15T23:23:37.895Z,101220.54
2022-12-15T23:24:41.109Z,101225.38
2022-12-15T23:25:45.145Z,101220.78
2022-12-15T23:26:48.174Z,101215.84
2022-12-15T23:27:51.604Z,101220.63
2022-12-15T23:28:55.419Z,101226.02
2022-12-15T23:29:58.657Z,101233.38
2022-12-15T23:31:01.893Z,101227.14
2022-12-15T23:32:05.132Z,101224.64